Station OSGN6 - 9052030 - Oswego, NY Image indicating link to RSS feed of recent meteorological observations for station OSGN6


Conditions at OSGN6 as of
(7:18 pm EDT)
2318 GMT on 09/06/2026:
     

Click on the graph icon in the table below to see a time series plot of the last five days of that observation.

5-day plot - Wind Direction Wind Direction (WDIR):NNE ( 20 deg true )
5-day plot - Wind Speed Wind Speed (WSPD): 8.9 kts
5-day plot - Wind Gust Wind Gust (GST): 14.0 kts
5-day plot - Atmospheric Pressure Atmospheric Pressure (PRES):30.08 in
5-day plot - Wind Speed at 10 Meters Wind Speed at 10 meters (WSPD10M): 7.8 kts
5-day plot - Wind Speed at 20 Meters Wind Speed at 20 meters (WSPD20M): 9.7 kts
5-day plot -  Wind Speed, Wind Gust and Atmospheric Pressure Combined plot of Wind Speed, Gust, and Air Pressure
NOS Water Level Observation Network Water Level
Previous observations
TIME
(EDT)
5-day plot - Wind Direction
WDIR
 
5-day plot - Wind Speed
WSPD
kts
5-day plot - Wind Gust
GST
kts
5-day plot - Wave Height
WVHT
ft
5-day plot - Dominant Wave Period
DPD
sec
5-day plot - Average Wave Period
APD
sec
5-day plot - Mean Wave Direction
MWD
 
5-day plot - Atmospheric Pressure
PRES
in
5-day plot - Pressure Tendency
PTDY
in
5-day plot - Air Temperature
ATMP
°F
5-day plot - Water Temperature
WTMP
°F
5-day plot - Dew Point
DEWP
°F
5-day plot - Salinity
SAL
psu
5-day plot - Visibility
VIS
nmi
5-day plot - Tide (above MLLW)
TIDE
ft
2026-09-06 07:12 pmNNE 8.9 12.0----30.08-------
2026-09-06 07:06 pmNNE 9.9 13.0----30.08-------
2026-09-06 07:00 pmNNE 9.9 13.0----30.08+0.00 69.3- 54.0---
2026-09-06 06:54 pmNNE 8.0 12.0----30.08- 69.4- 54.7---
2026-09-06 06:48 pm N 11.1 13.0----30.08- 69.3- 53.6---
2026-09-06 06:42 pm N 11.1 13.0----30.08- 69.3- 54.1---
2026-09-06 06:36 pmNNE 9.9 14.0----30.08- 69.6- 55.2---
2026-09-06 06:30 pmNNE 8.9 14.0----30.08- 69.4- 55.0---
2026-09-06 06:24 pmNNE 9.9 13.0----30.08- 69.4- 54.5---
2026-09-06 06:18 pmNNE 9.9 14.0----30.08-------
2026-09-06 06:12 pm N 12.0 14.0----30.08-------
2026-09-06 06:06 pm N 12.0 15.9----30.08-------
2026-09-06 06:00 pm N 11.1 15.0----30.08+0.00 69.3- 55.0---
2026-09-06 05:54 pm N 11.1 15.9----30.08- 69.4- 55.6---
2026-09-06 05:48 pm N 13.0 15.0----30.07- 69.1- 54.9---
2026-09-06 05:42 pm N 13.0 15.0----30.07- 69.3- 55.4---
2026-09-06 05:36 pm N 12.0 15.0----30.07- 69.3- 55.4---
2026-09-06 05:30 pm N 12.0 14.0----30.08- 69.3- 55.2---
2026-09-06 05:24 pm N 13.0 14.0----30.08- 68.9- 54.7---
2026-09-06 05:18 pmNNE 13.0 15.0----30.08-------
2026-09-06 05:12 pmNNE 12.0 15.0----30.08-------
2026-09-06 05:06 pm N 11.1 15.0----30.08-------
2026-09-06 05:00 pm N 12.0 15.0----30.08+0.00 69.1- 55.4---
2026-09-06 04:54 pm N 12.0 15.9----30.08- 69.3- 55.4---
2026-09-06 04:48 pmNNE 13.0 15.9----30.08- 68.9- 54.7---
2026-09-06 04:42 pmNNE 13.0 15.9----30.08- 68.9- 55.4---
2026-09-06 04:36 pm N 12.0 15.9----30.08- 69.1- 55.0---
2026-09-06 04:30 pm N 12.0 15.9----30.08- 69.1- 55.8---
2026-09-06 04:24 pm N 12.0 17.1----30.08- 69.4- 56.1---
2026-09-06 04:18 pm N 13.0 15.9----30.08-------
2026-09-06 04:12 pm N 12.0 15.9----30.08-------
2026-09-06 04:06 pm N 13.0 15.9----30.08-------
2026-09-06 04:00 pm N 13.0 17.1----30.08+0.00 68.5- 54.9---
2026-09-06 03:54 pm N 14.0 15.9----30.08- 68.9- 55.9---
2026-09-06 03:48 pm N 13.0 17.1----30.08- 68.7- 55.6---
2026-09-06 03:42 pm N 11.1 15.9----30.07- 69.1- 55.8---
2026-09-06 03:36 pmNNE 13.0 17.1----30.07- 68.7- 54.9---
2026-09-06 03:30 pmNNE 13.0 15.9----30.07- 68.7- 54.9---
2026-09-06 03:24 pmNNE 12.0 15.9----30.07- 68.9- 55.4---
2026-09-06 03:18 pm N 12.0 15.9----30.07-------
2026-09-06 03:12 pmNNE 12.0 15.9----30.07-------
2026-09-06 03:06 pmNNE 12.0 15.0----30.07-------
2026-09-06 03:00 pmNNE 11.1 15.0----30.07-0.02 69.1- 55.2---
2026-09-06 02:54 pmNNE 12.0 14.0----30.08- 68.4- 54.7---
2026-09-06 02:48 pmNNE 13.0 15.9----30.07- 68.5- 54.9---
2026-09-06 02:42 pmNNE 12.0 15.0----30.07- 68.4- 55.0---
2026-09-06 02:36 pmNNE 14.0 17.1----30.07- 68.4- 55.0---
2026-09-06 02:30 pm N 12.0 15.9----30.08- 68.5- 55.4---
2026-09-06 02:24 pmNNE 13.0 19.0----30.08- 68.5- 55.6---
2026-09-06 02:18 pmNNE 15.0 19.0----30.08-------
2026-09-06 02:12 pmNNE 14.0 18.1----30.08-------
2026-09-06 02:06 pmNNE 12.0 15.9----30.08-------
2026-09-06 02:00 pm N 11.1 15.0----30.08-0.02 68.4- 55.6---
2026-09-06 01:54 pmNNE 13.0 15.9----30.09- 67.6- 55.4---
2026-09-06 01:48 pmNNE 12.0 15.9----30.09-------
2026-09-06 01:42 pmNNE 12.0 14.0----30.09-------
2026-09-06 01:36 pmNNE 15.0 18.1----30.09-------
2026-09-06 01:30 pmNNE 13.0 17.1----30.09- 67.3- 55.2---
2026-09-06 01:24 pmNNE 12.0 17.1----30.08- 67.3- 55.2---
2026-09-06 01:18 pmNNE 13.0 17.1----30.08-------
2026-09-06 01:12 pmNNE 13.0 17.1----30.08-------
2026-09-06 01:06 pmNNE 13.0 17.1----30.08-------
2026-09-06 01:00 pmNNE 15.0 18.1----30.08+0.00 66.7- 55.4---
2026-09-06 12:54 pm N 13.0 17.1----30.08- 67.1- 56.1---
2026-09-06 12:48 pmNNE 13.0 18.1----30.09- 66.7- 55.8---
2026-09-06 12:42 pmNNE 13.0 18.1----30.09- 66.7- 55.9---
2026-09-06 12:36 pmNNE 14.0 18.1----30.09- 66.2- 55.4---
2026-09-06 12:30 pmNNE 13.0 15.9----30.09- 66.6- 56.3---
2026-09-06 12:24 pmNNE 14.0 17.1----30.09- 65.8- 55.8---
2026-09-06 12:18 pmNNE 13.0 17.1----30.09-------
2026-09-06 12:12 pmNNE 12.0 17.1----30.09-------
2026-09-06 12:06 pmNNE 15.0 18.1----30.10-------
2026-09-06 12:00 pmNNE 13.0 17.1----30.09+0.02 65.3- 56.1---
2026-09-06 11:54 amNNE 13.0 17.1----30.09- 65.1- 56.1---
2026-09-06 11:48 amNNE 12.0 15.9----30.09- 65.5- 56.3---
2026-09-06 11:42 am NE 11.1 15.9----30.09- 64.9- 55.8---
2026-09-06 11:36 amNNE 12.0 17.1----30.10- 64.8- 56.1---
2026-09-06 11:30 amNNE 12.0 15.9----30.10- 64.6- 56.5---
2026-09-06 11:24 amNNE 12.0 17.1----30.10- 64.2- 56.3---
2026-09-06 11:18 amNNE 12.0 15.0----30.10-------
2026-09-06 11:12 amNNE 14.0 15.9----30.10-------
2026-09-06 11:06 amNNE 14.0 17.1----30.10-------
2026-09-06 11:00 amNNE 13.0 17.1----30.10+0.04 63.5- 56.1---
2026-09-06 10:54 amNNE 13.0 14.0----30.10- 63.5- 56.5---
2026-09-06 10:48 amNNE 11.1 15.9----30.10- 63.9- 56.8---
2026-09-06 10:42 amNNE 14.0 17.1----30.09- 63.5- 56.8---
2026-09-06 10:36 amNNE 12.0 15.0----30.09- 63.5- 56.5---
2026-09-06 10:30 amNNE 12.0 15.9----30.09- 63.5- 56.3---
2026-09-06 10:24 amNNE 12.0 15.9----30.09- 63.5- 56.3---
2026-09-06 10:18 am NE 12.0 15.9----30.09-------
2026-09-06 10:12 amNNE 13.0 15.9----30.08-------
2026-09-06 10:06 amNNE 12.0 18.1----30.08-------
2026-09-06 10:00 amNNE 14.0 18.1----30.08+0.04 63.5- 56.8---
2026-09-06 09:54 amNNE 13.0 17.1----30.08- 63.7- 57.2---
2026-09-06 09:48 am NE 9.9 15.9----30.07-------
2026-09-06 09:42 am NE 11.1 15.9----30.07-------
2026-09-06 09:36 amNNE 14.0 15.9----30.08-------
2026-09-06 09:30 am NE 11.1 15.9----30.08- 63.3- 57.6---
2026-09-06 09:24 amNNE 9.9 15.0----30.08- 63.5- 57.9---
2026-09-06 09:18 amNNE 11.1 15.0----30.08-------
2026-09-06 09:12 amNNE 9.9 14.0----30.07-------
2026-09-06 09:06 amNNE 12.0 15.0----30.07-------
2026-09-06 09:00 am NE 8.9 12.0----30.07+0.06 63.3- 58.1---
2026-09-06 08:54 am NE 7.0 13.0----30.07- 63.5- 58.5---
2026-09-06 08:48 amNNE 8.9 14.0----30.07-------
2026-09-06 08:42 amNNE 9.9 15.0----30.07-------
2026-09-06 08:36 amNNE 13.0 15.0----30.07-------
2026-09-06 08:30 amNNE 11.1 15.0----30.07- 63.9- 58.3---
2026-09-06 08:24 amNNE 8.9 14.0----30.06- 64.2- 58.8---
2026-09-06 08:18 amNNE 12.0 15.0----30.06-------
2026-09-06 08:12 amNNE 8.9 13.0----30.06-------
2026-09-06 08:06 amNNE 9.9 13.0----30.06-------
2026-09-06 08:00 am NE 9.9 13.0----30.06+0.06 64.0- 58.8---
2026-09-06 07:54 amNNE 11.1 14.0----30.05- 64.0- 58.6---
2026-09-06 07:48 amNNE 12.0 14.0----30.05-------
2026-09-06 07:42 am NE 8.9 14.0----30.05-------
2026-09-06 07:36 am NE 8.9 13.0----30.05-------
2026-09-06 07:30 am NE 11.1 15.9----30.05- 63.5- 57.9---
2026-09-06 07:24 amNNE 12.0 15.0----30.05- 64.0- 58.5---
2026-09-06 07:18 amNNE 11.1 15.9----30.05-------
2026-09-06 07:12 am NE 8.9 14.0----30.04-------
2026-09-06 07:06 amNNE 11.1 14.0----30.04-------
2026-09-06 07:00 amNNE 11.1 14.0----30.04+0.06 63.7- 58.6---
2026-09-06 06:54 amNNE 12.0 14.0----30.04- 63.5- 58.3---
2026-09-06 06:48 amNNE 11.1 14.0----30.03- 63.1- 58.1---
2026-09-06 06:42 amNNE 11.1 15.0----30.03- 63.5- 58.5---
2026-09-06 06:36 amNNE 14.0 15.9----30.03- 63.5- 58.8---
2026-09-06 06:30 amNNE 12.0 15.0----30.03- 63.7- 59.2---
2026-09-06 06:24 amNNE 12.0 15.9----30.03- 63.7- 59.4---
2026-09-06 06:18 amNNE 14.0 18.1----30.03-------
2026-09-06 06:12 am NE 11.1 15.0----30.02-------
2026-09-06 06:06 am NE 8.9 14.0----30.02-------
2026-09-06 06:00 am NE 9.9 14.0----30.02+0.04 63.7- 60.1---
2026-09-06 05:54 am NE 9.9 15.0----30.01- 63.5- 60.1---
2026-09-06 05:48 am NE 8.9 13.0----30.01- 63.5- 60.1---
2026-09-06 05:42 amNNE 11.1 14.0----30.01- 63.9- 60.4---
2026-09-06 05:36 amNNE 9.9 13.0----30.01- 63.9- 60.4---
2026-09-06 05:30 am NE 11.1 15.9----30.01- 63.7- 60.4---
2026-09-06 05:24 am NE 11.1 17.1----30.01- 64.0- 60.8---
2026-09-06 05:18 amNNE 13.0 18.1----30.00-------
2026-09-06 05:12 amNNE 12.0 15.0----30.00-------
2026-09-06 05:06 amNNE 11.1 15.9----30.00-------
2026-09-06 05:00 amNNE 12.0 15.9----30.00+0.02 64.8- 61.3---
2026-09-06 04:54 am NE 9.9 14.0----29.99- 64.9- 61.7---
2026-09-06 04:48 amNNE 11.1 15.0----29.99- 65.3- 61.9---
2026-09-06 04:42 am NE 8.9 13.0----29.99- 65.1- 61.7---
2026-09-06 04:36 am NE 8.9 14.0----29.98- 65.5- 61.7---
2026-09-06 04:30 amNNE 9.9 13.0----29.98- 65.8- 61.9---
2026-09-06 04:24 amNNE 8.9 12.0----29.98- 66.0- 61.9---
2026-09-06 04:18 am NE 8.9 13.0----29.98-------
2026-09-06 04:12 amNNE 8.0 13.0----29.98-------
2026-09-06 04:06 amNNE 8.0 12.0----29.98-------
2026-09-06 04:00 amNNE 9.9 12.0----29.98+0.01 66.0- 61.3---
2026-09-06 03:54 amNNE 8.9 12.0----29.98- 66.4- 61.7---
2026-09-06 03:48 amNNE 8.9 12.0----29.98- 66.4- 61.3---
2026-09-06 03:42 amNNE 11.1 12.0----29.98- 66.4- 61.2---
2026-09-06 03:36 amNNE 9.9 12.0----29.98- 66.6- 61.3---
2026-09-06 03:30 amNNE 8.9 11.1----29.98- 66.6- 61.3---
2026-09-06 03:24 am NE 4.1 7.0----29.98- 66.2- 61.0---
2026-09-06 03:18 am NE 4.1 6.0----29.98-------
2026-09-06 03:12 am NE 2.9 6.0----29.98-------
2026-09-06 03:06 am NE 5.1 6.0----29.98-------
2026-09-06 03:00 am NE 4.1 5.1----29.98+0.00 65.5- 60.1---
2026-09-06 02:54 am NE 2.9 5.1----29.98- 65.3- 59.9---
2026-09-06 02:48 amENE 4.1 6.0----29.97- 65.3- 59.7---
2026-09-06 02:42 am NE 4.1 5.1----29.97- 65.7- 59.9---
2026-09-06 02:36 am NE 2.9 4.1----29.97- 65.8- 59.9---
2026-09-06 02:30 am E 2.9 5.1----29.97- 65.8- 59.5---
2026-09-06 02:24 amNNE 5.1 8.9----29.97- 66.9- 60.1---
2026-09-06 02:18 amNNE 7.0 8.9----29.97-------
2026-09-06 02:12 amNNE 6.0 8.0----29.98-------
2026-09-06 02:06 amNNE 6.0 11.1----29.98-------
2026-09-06 02:00 amNNE 6.0 12.0----29.97+0.01 67.6- 60.3---
2026-09-06 01:54 amNNE 7.0 11.1----29.97- 67.3- 60.6---
2026-09-06 01:48 amENE 4.1 5.1----29.97- 66.0- 60.1---
2026-09-06 01:42 amENE 2.9 5.1----29.97- 66.0- 60.1---
2026-09-06 01:36 amENE 2.9 6.0----29.97- 66.4- 60.4---
2026-09-06 01:30 amENE 4.1 6.0----29.97- 66.0- 60.4---
2026-09-06 01:24 amENE 4.1 7.0----29.97- 66.6- 60.6---
2026-09-06 01:18 amENE 4.1 8.0----29.98-------
2026-09-06 01:12 amENE 2.9 5.1----29.98-------
2026-09-06 01:06 amENE 4.1 5.1----29.97-------
2026-09-06 01:00 amENE 2.9 5.1----29.97+0.01 66.4- 61.3---
2026-09-06 12:54 am E 1.9 4.1----29.97- 66.4- 61.3---
2026-09-06 12:48 amESE 1.9 2.9----29.97- 66.4- 61.5---
2026-09-06 12:42 amESE 1.9 5.1----29.97- 66.4- 61.3---
2026-09-06 12:36 am E 2.9 5.1----29.97- 66.7- 61.5---
2026-09-06 12:30 am E 2.9 4.1----29.97- 66.7- 61.7---
2026-09-06 12:24 amESE 2.9 5.1----29.97- 67.1- 61.9---
2026-09-06 12:18 am E 2.9 6.0----29.97-------
2026-09-06 12:12 am NE 4.1 11.1----29.97-------
2026-09-06 12:06 amENE 2.9 8.0----29.97-------
2026-09-06 12:00 am E 2.9 9.9----29.97+0.02 67.6- 60.6---
2026-09-05 11:54 pmNNE 7.0 9.9----29.97- 69.4- 61.2---
2026-09-05 11:48 pm NE 5.1 8.0----29.97- 69.1- 60.8---
2026-09-05 11:42 pm NE 5.1 9.9----29.97- 69.3- 60.8---
2026-09-05 11:36 pm NE 5.1 8.9----29.97- 69.1- 61.2---
2026-09-05 11:30 pm NE 5.1 8.9----29.96- 68.9- 61.0---
2026-09-05 11:24 pmNNE 5.1 8.9----29.96- 69.1- 61.2---
2026-09-05 11:18 pm-------29.97- 69.1- 61.2---
2026-09-05 11:12 pm-------29.96- 69.4- 61.3---
2026-09-05 11:06 pm-------29.96- 69.1- 61.5---
2026-09-05 11:00 pmNNE 8.0 11.1----29.96+0.01 68.9- 61.9---
2026-09-05 10:54 pmNNE 4.1 7.0----29.96- 67.8- 61.7---
2026-09-05 10:48 pm NE 1.9 5.1----29.96- 66.6- 61.0---
2026-09-05 10:42 pmNNE 2.9 4.1----29.96- 66.0- 60.8---
2026-09-05 10:36 pmENE 1.0 2.9----29.96- 64.9- 60.4---
2026-09-05 10:30 pm E 1.9 5.1----29.96- 65.1- 60.6---
2026-09-05 10:24 pm NE 4.1 6.0----29.96- 65.1- 60.6---
2026-09-05 10:18 pm NE 5.1 12.0----29.96-------
2026-09-05 10:12 pm NE 11.1 19.0----29.96-------
2026-09-05 10:06 pmNNE 17.1 21.0----29.96-------
2026-09-05 10:00 pm N 11.1 14.0----29.96+0.01 70.2- 64.6---
2026-09-05 09:54 pmNNW 12.0 15.0----29.96- 70.7- 64.9---
2026-09-05 09:48 pm NW 13.0 15.0----29.96-------
2026-09-05 09:42 pmNNW 11.1 14.0----29.96-------
2026-09-05 09:36 pm NW 12.0 13.0----29.95-------
2026-09-05 09:30 pm NW 11.1 12.0----29.95- 70.5- 64.4---
2026-09-05 09:24 pm NW 11.1 14.0----29.95- 70.7- 64.8---
2026-09-05 09:18 pm NW 12.0 14.0----29.95-------
2026-09-05 09:12 pm NW 12.0 14.0----29.95-------
2026-09-05 09:06 pmNNW 11.1 14.0----29.95-------
2026-09-05 09:00 pmNNW 11.1 13.0----29.96+0.01 70.7- 63.9---
2026-09-05 08:54 pmNNW 9.9 13.0----29.96- 70.5- 63.9---
2026-09-05 08:48 pmNNW 9.9 12.0----29.96- 70.2- 63.5---
2026-09-05 08:42 pm NW 9.9 12.0----29.95- 70.5- 64.2---
2026-09-05 08:36 pmNNW 11.1 13.0----29.95- 70.3- 63.7---
2026-09-05 08:30 pm-------29.95- 70.3- 64.0---
2026-09-05 08:24 pm-------29.95- 70.5- 64.2---
2026-09-05 08:18 pmNNW 12.0 13.0----29.95-------
2026-09-05 08:12 pm NW 11.1 13.0----29.95-------
2026-09-05 08:06 pm NW 12.0 14.0----29.95-------
2026-09-05 08:00 pmNNW 11.1 13.0----29.95+0.01 70.7- 62.8---
2026-09-05 07:54 pm NW 11.1 12.0----29.94- 70.9- 63.0---
2026-09-05 07:48 pm NW 8.9 12.0----29.95-------
2026-09-05 07:42 pmNNW 8.9 11.1----29.95-------
2026-09-05 07:36 pm N 7.0 9.9----29.95-------
2026-09-05 07:30 pmNNW 7.0 11.1----29.95- 70.9- 62.2---
2026-09-05 07:24 pmNNW 8.9 9.9----29.95- 70.9- 62.1---
2026-09-05 07:18 pmNNW 8.0 11.1----29.95-------
2026-09-05 07:12 pmNNW 8.9 11.1----29.95-------
2026-09-05 07:06 pmNNW 8.9 12.0----29.95-------
2026-09-05 07:00 pmNNW 8.9 11.1----29.95+0.00 70.5- 61.9---
2026-09-05 06:54 pmNNW 8.9 11.1----29.95- 70.7- 62.2---